sensor_id;sensor_type;location;lat;lon;timestamp;temperature;humidity
14006;DHT22;7078;51.542;7.314;2023-03-04T00:00:20;5.30;99.90
14006;DHT22;7078;51.542;7.314;2023-03-04T00:02:45;5.30;99.90
14006;DHT22;7078;51.542;7.314;2023-03-04T00:05:11;5.30;99.90
14006;DHT22;7078;51.542;7.314;2023-03-04T00:07:36;5.30;99.90
14006;DHT22;7078;51.542;7.314;2023-03-04T00:10:03;5.30;99.90
14006;DHT22;7078;51.542;7.314;2023-03-04T00:12:28;5.30;99.90
14006;DHT22;7078;51.542;7.314;2023-03-04T00:14:54;5.30;99.90
14006;DHT22;7078;51.542;7.314;2023-03-04T00:17:20;5.30;99.90
14006;DHT22;7078;51.542;7.314;2023-03-04T00:19:45;5.30;99.90
14006;DHT22;7078;51.542;7.314;2023-03-04T00:22:11;5.30;99.90
14006;DHT22;7078;51.542;7.314;2023-03-04T00:24:36;5.30;99.90
14006;DHT22;7078;51.542;7.314;2023-03-04T00:27:02;5.30;99.90
14006;DHT22;7078;51.542;7.314;2023-03-04T00:29:27;5.30;99.90
14006;DHT22;7078;51.542;7.314;2023-03-04T00:31:53;5.30;99.90
14006;DHT22;7078;51.542;7.314;2023-03-04T00:34:19;5.30;99.90
14006;DHT22;7078;51.542;7.314;2023-03-04T00:36:45;5.30;99.90
14006;DHT22;7078;51.542;7.314;2023-03-04T00:39:11;5.30;99.90
14006;DHT22;7078;51.542;7.314;2023-03-04T00:41:37;5.40;99.90
14006;DHT22;7078;51.542;7.314;2023-03-04T00:44:04;5.40;99.90
14006;DHT22;7078;51.542;7.314;2023-03-04T00:46:29;5.40;99.90
14006;DHT22;7078;51.542;7.314;2023-03-04T00:48:55;5.50;99.90
14006;DHT22;7078;51.542;7.314;2023-03-04T00:51:20;5.40;99.90
14006;DHT22;7078;51.542;7.314;2023-03-04T00:53:46;5.40;99.90
14006;DHT22;7078;51.542;7.314;2023-03-04T00:56:12;5.40;99.90
14006;DHT22;7078;51.542;7.314;2023-03-04T00:58:37;5.40;99.90
14006;DHT22;7078;51.542;7.314;2023-03-04T01:01:07;5.40;99.90
14006;DHT22;7078;51.542;7.314;2023-03-04T01:03:33;5.40;99.90
14006;DHT22;7078;51.542;7.314;2023-03-04T01:05:59;5.30;99.90
14006;DHT22;7078;51.542;7.314;2023-03-04T01:08:25;5.30;99.90
14006;DHT22;7078;51.542;7.314;2023-03-04T01:10:51;5.30;99.90
14006;DHT22;7078;51.542;7.314;2023-03-04T01:13:17;5.30;99.90
14006;DHT22;7078;51.542;7.314;2023-03-04T01:15:42;5.30;99.90
14006;DHT22;7078;51.542;7.314;2023-03-04T01:18:08;5.30;99.90
14006;DHT22;7078;51.542;7.314;2023-03-04T01:20:33;5.30;99.90
14006;DHT22;7078;51.542;7.314;2023-03-04T01:22:59;5.30;99.90
14006;DHT22;7078;51.542;7.314;2023-03-04T01:25:24;5.30;99.90
14006;DHT22;7078;51.542;7.314;2023-03-04T01:27:50;5.30;99.90
14006;DHT22;7078;51.542;7.314;2023-03-04T01:30:16;5.30;99.90
14006;DHT22;7078;51.542;7.314;2023-03-04T01:32:41;5.30;99.90
14006;DHT22;7078;51.542;7.314;2023-03-04T01:35:07;5.40;99.90
14006;DHT22;7078;51.542;7.314;2023-03-04T01:37:33;5.30;99.90
14006;DHT22;7078;51.542;7.314;2023-03-04T01:39:58;5.30;99.90
14006;DHT22;7078;51.542;7.314;2023-03-04T01:42:25;5.30;99.90
14006;DHT22;7078;51.542;7.314;2023-03-04T01:44:52;5.30;99.90
14006;DHT22;7078;51.542;7.314;2023-03-04T01:47:18;5.30;99.90
14006;DHT22;7078;51.542;7.314;2023-03-04T01:49:46;5.30;99.90
14006;DHT22;7078;51.542;7.314;2023-03-04T01:52:15;5.30;99.90
14006;DHT22;7078;51.542;7.314;2023-03-04T01:54:40;5.30;99.90
14006;DHT22;7078;51.542;7.314;2023-03-04T01:57:18;5.20;99.90
14006;DHT22;7078;51.542;7.314;2023-03-04T01:59:44;5.30;99.90
14006;DHT22;7078;51.542;7.314;2023-03-04T02:02:11;5.30;99.90
14006;DHT22;7078;51.542;7.314;2023-03-04T02:04:38;5.30;99.90
14006;DHT22;7078;51.542;7.314;2023-03-04T02:07:04;5.30;99.90
14006;DHT22;7078;51.542;7.314;2023-03-04T02:09:31;5.30;99.90
14006;DHT22;7078;51.542;7.314;2023-03-04T02:11:57;5.30;99.90
14006;DHT22;7078;51.542;7.314;2023-03-04T02:14:23;5.30;99.90
14006;DHT22;7078;51.542;7.314;2023-03-04T02:16:50;5.30;99.90
14006;DHT22;7078;51.542;7.314;2023-03-04T02:22:11;5.30;99.90
14006;DHT22;7078;51.542;7.314;2023-03-04T02:24:44;5.40;99.90
14006;DHT22;7078;51.542;7.314;2023-03-04T02:27:11;5.40;99.90
14006;DHT22;7078;51.542;7.314;2023-03-04T02:29:37;5.30;99.90
14006;DHT22;7078;51.542;7.314;2023-03-04T02:32:03;5.40;99.90
14006;DHT22;7078;51.542;7.314;2023-03-04T02:34:34;5.40;99.90
14006;DHT22;7078;51.542;7.314;2023-03-04T02:37:01;5.40;99.90
14006;DHT22;7078;51.542;7.314;2023-03-04T02:39:44;5.30;99.90
14006;DHT22;7078;51.542;7.314;2023-03-04T02:42:10;5.30;99.90
14006;DHT22;7078;51.542;7.314;2023-03-04T02:44:38;5.30;99.90
14006;DHT22;7078;51.542;7.314;2023-03-04T02:47:07;5.30;99.90
14006;DHT22;7078;51.542;7.314;2023-03-04T02:49:35;5.30;99.90
14006;DHT22;7078;51.542;7.314;2023-03-04T02:54:36;5.30;99.90
14006;DHT22;7078;51.542;7.314;2023-03-04T02:57:04;5.30;99.90
14006;DHT22;7078;51.542;7.314;2023-03-04T02:59:30;5.30;99.90
14006;DHT22;7078;51.542;7.314;2023-03-04T03:01:55;5.30;99.90
14006;DHT22;7078;51.542;7.314;2023-03-04T03:04:22;5.30;99.90
14006;DHT22;7078;51.542;7.314;2023-03-04T03:06:48;5.30;99.90
14006;DHT22;7078;51.542;7.314;2023-03-04T03:09:14;5.30;99.90
14006;DHT22;7078;51.542;7.314;2023-03-04T03:11:39;5.30;99.90
14006;DHT22;7078;51.542;7.314;2023-03-04T03:14:05;5.30;99.90
14006;DHT22;7078;51.542;7.314;2023-03-04T03:16:31;5.30;99.90
14006;DHT22;7078;51.542;7.314;2023-03-04T03:18:56;5.30;99.90
14006;DHT22;7078;51.542;7.314;2023-03-04T03:21:22;5.30;99.90
14006;DHT22;7078;51.542;7.314;2023-03-04T03:23:47;5.30;99.90
14006;DHT22;7078;51.542;7.314;2023-03-04T03:26:13;5.30;99.90
14006;DHT22;7078;51.542;7.314;2023-03-04T03:28:39;5.30;99.90
14006;DHT22;7078;51.542;7.314;2023-03-04T03:31:04;5.30;99.90
14006;DHT22;7078;51.542;7.314;2023-03-04T03:33:30;5.30;99.90
14006;DHT22;7078;51.542;7.314;2023-03-04T03:35:56;5.30;99.90
14006;DHT22;7078;51.542;7.314;2023-03-04T03:38:21;5.30;99.90
14006;DHT22;7078;51.542;7.314;2023-03-04T03:40:47;5.30;99.90
14006;DHT22;7078;51.542;7.314;2023-03-04T03:43:12;5.30;99.90
14006;DHT22;7078;51.542;7.314;2023-03-04T03:45:38;5.30;99.90
14006;DHT22;7078;51.542;7.314;2023-03-04T03:48:04;5.30;99.90
14006;DHT22;7078;51.542;7.314;2023-03-04T03:50:30;5.30;99.90
14006;DHT22;7078;51.542;7.314;2023-03-04T03:52:55;5.30;99.90
14006;DHT22;7078;51.542;7.314;2023-03-04T03:55:21;5.30;99.90
14006;DHT22;7078;51.542;7.314;2023-03-04T03:57:47;5.30;99.90
14006;DHT22;7078;51.542;7.314;2023-03-04T04:00:13;5.30;99.90
14006;DHT22;7078;51.542;7.314;2023-03-04T04:02:39;5.30;99.90
14006;DHT22;7078;51.542;7.314;2023-03-04T04:05:06;5.30;99.90
14006;DHT22;7078;51.542;7.314;2023-03-04T04:07:32;5.30;99.90
14006;DHT22;7078;51.542;7.314;2023-03-04T04:09:57;5.30;99.90
14006;DHT22;7078;51.542;7.314;2023-03-04T04:12:23;5.30;99.90
14006;DHT22;7078;51.542;7.314;2023-03-04T04:14:48;5.30;99.90
14006;DHT22;7078;51.542;7.314;2023-03-04T04:17:14;5.30;99.90
14006;DHT22;7078;51.542;7.314;2023-03-04T04:19:40;5.20;99.90
14006;DHT22;7078;51.542;7.314;2023-03-04T04:22:07;5.30;99.90
14006;DHT22;7078;51.542;7.314;2023-03-04T04:24:35;5.30;99.90
14006;DHT22;7078;51.542;7.314;2023-03-04T04:27:00;5.30;99.90
14006;DHT22;7078;51.542;7.314;2023-03-04T04:29:26;5.30;99.90
14006;DHT22;7078;51.542;7.314;2023-03-04T04:31:52;5.30;99.90
14006;DHT22;7078;51.542;7.314;2023-03-04T04:34:17;5.20;99.90
14006;DHT22;7078;51.542;7.314;2023-03-04T04:36:43;5.20;99.90
14006;DHT22;7078;51.542;7.314;2023-03-04T04:39:08;5.20;99.90
14006;DHT22;7078;51.542;7.314;2023-03-04T04:41:37;5.20;99.90
14006;DHT22;7078;51.542;7.314;2023-03-04T04:44:03;5.20;99.90
14006;DHT22;7078;51.542;7.314;2023-03-04T04:46:29;5.20;99.90
14006;DHT22;7078;51.542;7.314;2023-03-04T04:48:54;5.30;99.90
14006;DHT22;7078;51.542;7.314;2023-03-04T04:51:20;5.20;99.90
14006;DHT22;7078;51.542;7.314;2023-03-04T04:53:46;5.30;99.90
14006;DHT22;7078;51.542;7.314;2023-03-04T04:56:15;5.30;99.90
14006;DHT22;7078;51.542;7.314;2023-03-04T04:58:42;5.30;99.90
14006;DHT22;7078;51.542;7.314;2023-03-04T05:01:08;5.30;99.90
14006;DHT22;7078;51.542;7.314;2023-03-04T05:03:35;5.30;99.90
14006;DHT22;7078;51.542;7.314;2023-03-04T05:06:01;5.30;99.90
14006;DHT22;7078;51.542;7.314;2023-03-04T05:08:27;5.30;99.90
14006;DHT22;7078;51.542;7.314;2023-03-04T05:10:52;5.20;99.90
14006;DHT22;7078;51.542;7.314;2023-03-04T05:13:18;5.20;99.90
14006;DHT22;7078;51.542;7.314;2023-03-04T05:15:45;5.20;99.90
14006;DHT22;7078;51.542;7.314;2023-03-04T05:18:10;5.20;99.90
14006;DHT22;7078;51.542;7.314;2023-03-04T05:20:36;5.20;99.90
14006;DHT22;7078;51.542;7.314;2023-03-04T05:23:02;5.20;99.90
14006;DHT22;7078;51.542;7.314;2023-03-04T05:25:28;5.30;99.90
14006;DHT22;7078;51.542;7.314;2023-03-04T05:27:53;5.30;99.90
14006;DHT22;7078;51.542;7.314;2023-03-04T05:30:19;5.20;99.90
14006;DHT22;7078;51.542;7.314;2023-03-04T05:32:45;5.20;99.90
14006;DHT22;7078;51.542;7.314;2023-03-04T05:35:11;5.30;99.90
14006;DHT22;7078;51.542;7.314;2023-03-04T05:37:37;5.30;99.90
14006;DHT22;7078;51.542;7.314;2023-03-04T05:40:03;5.30;99.90
14006;DHT22;7078;51.542;7.314;2023-03-04T05:42:29;5.20;99.90
14006;DHT22;7078;51.542;7.314;2023-03-04T05:44:55;5.20;99.90
14006;DHT22;7078;51.542;7.314;2023-03-04T05:47:21;5.20;99.90
14006;DHT22;7078;51.542;7.314;2023-03-04T05:49:46;5.20;99.90
14006;DHT22;7078;51.542;7.314;2023-03-04T05:52:12;5.20;99.90
14006;DHT22;7078;51.542;7.314;2023-03-04T05:54:37;5.20;99.90
14006;DHT22;7078;51.542;7.314;2023-03-04T05:57:03;5.30;99.90
14006;DHT22;7078;51.542;7.314;2023-03-04T05:59:28;5.20;99.90
14006;DHT22;7078;51.542;7.314;2023-03-04T06:01:54;5.20;99.90
14006;DHT22;7078;51.542;7.314;2023-03-04T06:04:19;5.20;99.90
14006;DHT22;7078;51.542;7.314;2023-03-04T06:06:45;5.20;99.90
14006;DHT22;7078;51.542;7.314;2023-03-04T06:09:12;5.20;99.90
14006;DHT22;7078;51.542;7.314;2023-03-04T06:11:38;5.20;99.90
14006;DHT22;7078;51.542;7.314;2023-03-04T06:14:04;5.20;99.90
14006;DHT22;7078;51.542;7.314;2023-03-04T06:16:30;5.20;99.90
14006;DHT22;7078;51.542;7.314;2023-03-04T06:18:55;5.20;99.90
14006;DHT22;7078;51.542;7.314;2023-03-04T06:21:21;5.20;99.90
14006;DHT22;7078;51.542;7.314;2023-03-04T06:23:46;5.20;99.90
14006;DHT22;7078;51.542;7.314;2023-03-04T06:26:12;5.20;99.90
14006;DHT22;7078;51.542;7.314;2023-03-04T06:28:40;5.20;99.90
14006;DHT22;7078;51.542;7.314;2023-03-04T06:31:06;5.20;99.90
14006;DHT22;7078;51.542;7.314;2023-03-04T06:33:32;5.30;99.90
14006;DHT22;7078;51.542;7.314;2023-03-04T06:35:58;5.30;99.90
14006;DHT22;7078;51.542;7.314;2023-03-04T06:38:24;5.30;99.90
14006;DHT22;7078;51.542;7.314;2023-03-04T06:40:51;5.30;99.90
14006;DHT22;7078;51.542;7.314;2023-03-04T06:43:17;5.30;99.90
14006;DHT22;7078;51.542;7.314;2023-03-04T06:45:42;5.40;99.90
14006;DHT22;7078;51.542;7.314;2023-03-04T06:48:08;5.80;99.90
14006;DHT22;7078;51.542;7.314;2023-03-04T06:50:33;6.00;99.90
14006;DHT22;7078;51.542;7.314;2023-03-04T06:52:59;6.30;99.90
14006;DHT22;7078;51.542;7.314;2023-03-04T06:55:24;6.40;99.90
14006;DHT22;7078;51.542;7.314;2023-03-04T06:57:50;6.40;99.90
14006;DHT22;7078;51.542;7.314;2023-03-04T07:00:16;6.30;99.90
14006;DHT22;7078;51.542;7.314;2023-03-04T07:02:42;6.30;99.90
14006;DHT22;7078;51.542;7.314;2023-03-04T07:05:09;6.30;99.90
14006;DHT22;7078;51.542;7.314;2023-03-04T07:07:36;6.30;99.90
14006;DHT22;7078;51.542;7.314;2023-03-04T07:10:02;6.30;99.90
14006;DHT22;7078;51.542;7.314;2023-03-04T07:12:28;6.10;99.90
14006;DHT22;7078;51.542;7.314;2023-03-04T07:14:54;6.00;99.90
14006;DHT22;7078;51.542;7.314;2023-03-04T07:17:20;5.90;99.90
14006;DHT22;7078;51.542;7.314;2023-03-04T07:19:45;5.80;99.90
14006;DHT22;7078;51.542;7.314;2023-03-04T07:22:11;5.70;99.90
14006;DHT22;7078;51.542;7.314;2023-03-04T07:24:36;5.70;99.90
14006;DHT22;7078;51.542;7.314;2023-03-04T07:27:02;5.60;99.90
14006;DHT22;7078;51.542;7.314;2023-03-04T07:29:27;5.70;99.90
14006;DHT22;7078;51.542;7.314;2023-03-04T07:31:53;5.60;99.90
14006;DHT22;7078;51.542;7.314;2023-03-04T07:34:19;5.60;99.90
14006;DHT22;7078;51.542;7.314;2023-03-04T07:36:45;5.50;99.90
14006;DHT22;7078;51.542;7.314;2023-03-04T07:39:11;5.50;99.90
14006;DHT22;7078;51.542;7.314;2023-03-04T07:41:38;5.50;99.90
14006;DHT22;7078;51.542;7.314;2023-03-04T07:44:04;5.50;99.90
14006;DHT22;7078;51.542;7.314;2023-03-04T07:46:30;5.60;99.90
14006;DHT22;7078;51.542;7.314;2023-03-04T07:48:56;5.60;99.90
14006;DHT22;7078;51.542;7.314;2023-03-04T07:51:23;5.60;99.90
14006;DHT22;7078;51.542;7.314;2023-03-04T07:53:51;5.60;99.90
14006;DHT22;7078;51.542;7.314;2023-03-04T07:56:20;5.70;99.90
14006;DHT22;7078;51.542;7.314;2023-03-04T07:58:46;5.80;99.90
14006;DHT22;7078;51.542;7.314;2023-03-04T08:01:32;5.80;99.90
14006;DHT22;7078;51.542;7.314;2023-03-04T08:03:59;5.90;99.90
14006;DHT22;7078;51.542;7.314;2023-03-04T08:06:25;6.00;99.90
14006;DHT22;7078;51.542;7.314;2023-03-04T08:09:02;6.00;99.90
14006;DHT22;7078;51.542;7.314;2023-03-04T08:11:29;6.10;99.90
14006;DHT22;7078;51.542;7.314;2023-03-04T08:13:55;6.10;99.90
14006;DHT22;7078;51.542;7.314;2023-03-04T08:16:22;6.20;99.90
14006;DHT22;7078;51.542;7.314;2023-03-04T08:18:51;6.30;99.90
14006;DHT22;7078;51.542;7.314;2023-03-04T08:21:18;6.40;99.90
14006;DHT22;7078;51.542;7.314;2023-03-04T08:23:45;6.40;99.90
14006;DHT22;7078;51.542;7.314;2023-03-04T08:26:17;6.40;99.90
14006;DHT22;7078;51.542;7.314;2023-03-04T08:28:44;6.50;99.90
14006;DHT22;7078;51.542;7.314;2023-03-04T08:31:14;6.60;99.90
14006;DHT22;7078;51.542;7.314;2023-03-04T08:33:40;6.70;99.90
14006;DHT22;7078;51.542;7.314;2023-03-04T08:36:06;6.80;99.90
14006;DHT22;7078;51.542;7.314;2023-03-04T08:38:32;6.80;99.90
14006;DHT22;7078;51.542;7.314;2023-03-04T08:40:58;6.90;99.90
14006;DHT22;7078;51.542;7.314;2023-03-04T08:43:25;6.90;99.90
14006;DHT22;7078;51.542;7.314;2023-03-04T08:45:52;6.80;99.90
14006;DHT22;7078;51.542;7.314;2023-03-04T08:48:18;6.90;99.90
14006;DHT22;7078;51.542;7.314;2023-03-04T08:50:45;6.90;99.90
14006;DHT22;7078;51.542;7.314;2023-03-04T08:53:11;6.90;99.90
14006;DHT22;7078;51.542;7.314;2023-03-04T08:55:38;6.90;99.90
14006;DHT22;7078;51.542;7.314;2023-03-04T08:58:05;6.80;99.90
14006;DHT22;7078;51.542;7.314;2023-03-04T09:00:32;6.80;99.90
14006;DHT22;7078;51.542;7.314;2023-03-04T09:02:57;6.70;99.90
14006;DHT22;7078;51.542;7.314;2023-03-04T09:05:23;6.70;99.90
14006;DHT22;7078;51.542;7.314;2023-03-04T09:07:48;6.70;99.90
14006;DHT22;7078;51.542;7.314;2023-03-04T09:10:14;6.70;99.90
14006;DHT22;7078;51.542;7.314;2023-03-04T09:12:39;6.90;99.90
14006;DHT22;7078;51.542;7.314;2023-03-04T09:15:06;6.90;99.90
14006;DHT22;7078;51.542;7.314;2023-03-04T09:17:32;7.00;99.90
14006;DHT22;7078;51.542;7.314;2023-03-04T09:19:57;6.90;99.90
14006;DHT22;7078;51.542;7.314;2023-03-04T09:22:23;6.80;99.90
14006;DHT22;7078;51.542;7.314;2023-03-04T09:24:49;6.70;99.90
14006;DHT22;7078;51.542;7.314;2023-03-04T09:27:14;6.60;99.90
14006;DHT22;7078;51.542;7.314;2023-03-04T09:29:40;6.50;99.90
14006;DHT22;7078;51.542;7.314;2023-03-04T09:32:07;6.50;99.90
14006;DHT22;7078;51.542;7.314;2023-03-04T09:34:33;6.50;99.90
14006;DHT22;7078;51.542;7.314;2023-03-04T09:36:58;6.50;99.90
14006;DHT22;7078;51.542;7.314;2023-03-04T09:39:24;6.60;99.90
14006;DHT22;7078;51.542;7.314;2023-03-04T09:41:52;6.50;99.90
14006;DHT22;7078;51.542;7.314;2023-03-04T09:44:35;6.50;99.90
14006;DHT22;7078;51.542;7.314;2023-03-04T09:47:03;6.50;99.90
14006;DHT22;7078;51.542;7.314;2023-03-04T09:49:30;6.50;99.90
14006;DHT22;7078;51.542;7.314;2023-03-04T09:52:22;6.50;99.90
14006;DHT22;7078;51.542;7.314;2023-03-04T09:57:39;6.70;99.90
14006;DHT22;7078;51.542;7.314;2023-03-04T10:00:18;6.70;99.90
14006;DHT22;7078;51.542;7.314;2023-03-04T10:05:21;6.80;99.90
14006;DHT22;7078;51.542;7.314;2023-03-04T10:07:55;6.80;99.90
14006;DHT22;7078;51.542;7.314;2023-03-04T10:10:26;6.90;99.90
14006;DHT22;7078;51.542;7.314;2023-03-04T10:12:56;6.90;99.90
14006;DHT22;7078;51.542;7.314;2023-03-04T10:15:38;7.00;99.90
14006;DHT22;7078;51.542;7.314;2023-03-04T10:18:28;7.00;99.90
14006;DHT22;7078;51.542;7.314;2023-03-04T10:23:44;7.20;99.90
14006;DHT22;7078;51.542;7.314;2023-03-04T10:26:15;7.20;99.90
14006;DHT22;7078;51.542;7.314;2023-03-04T10:28:41;7.20;99.90
14006;DHT22;7078;51.542;7.314;2023-03-04T10:33:37;7.20;99.90
14006;DHT22;7078;51.542;7.314;2023-03-04T10:39:02;7.30;99.90
14006;DHT22;7078;51.542;7.314;2023-03-04T10:41:31;7.40;99.90
14006;DHT22;7078;51.542;7.314;2023-03-04T10:44:16;7.40;99.90
14006;DHT22;7078;51.542;7.314;2023-03-04T10:46:44;7.40;99.90
14006;DHT22;7078;51.542;7.314;2023-03-04T10:49:12;7.30;99.90
14006;DHT22;7078;51.542;7.314;2023-03-04T10:51:52;7.20;99.90
14006;DHT22;7078;51.542;7.314;2023-03-04T10:54:28;7.20;99.90
14006;DHT22;7078;51.542;7.314;2023-03-04T10:59:38;7.00;99.90
14006;DHT22;7078;51.542;7.314;2023-03-04T11:07:51;6.90;99.90
14006;DHT22;7078;51.542;7.314;2023-03-04T11:13:33;6.80;99.90
14006;DHT22;7078;51.542;7.314;2023-03-04T11:15:49;6.90;99.90
14006;DHT22;7078;51.542;7.314;2023-03-04T11:18:16;7.10;99.90
14006;DHT22;7078;51.542;7.314;2023-03-04T11:20:46;7.20;99.90
14006;DHT22;7078;51.542;7.314;2023-03-04T11:23:42;7.30;99.90
14006;DHT22;7078;51.542;7.314;2023-03-04T11:26:13;7.40;99.90
14006;DHT22;7078;51.542;7.314;2023-03-04T11:28:52;7.50;99.90
14006;DHT22;7078;51.542;7.314;2023-03-04T11:31:39;7.60;99.90
14006;DHT22;7078;51.542;7.314;2023-03-04T11:34:38;7.60;99.90
14006;DHT22;7078;51.542;7.314;2023-03-04T11:40:00;7.80;99.90
14006;DHT22;7078;51.542;7.314;2023-03-04T11:42:36;7.70;99.90
14006;DHT22;7078;51.542;7.314;2023-03-04T11:45:03;7.70;99.90
14006;DHT22;7078;51.542;7.314;2023-03-04T11:47:40;7.60;99.90
14006;DHT22;7078;51.542;7.314;2023-03-04T11:55:44;7.50;99.90
14006;DHT22;7078;51.542;7.314;2023-03-04T12:02:19;7.70;99.90
14006;DHT22;7078;51.542;7.314;2023-03-04T12:07:19;8.00;99.90
14006;DHT22;7078;51.542;7.314;2023-03-04T12:10:14;7.90;99.90
14006;DHT22;7078;51.542;7.314;2023-03-04T12:15:46;7.70;99.90
14006;DHT22;7078;51.542;7.314;2023-03-04T12:18:25;7.70;99.90
14006;DHT22;7078;51.542;7.314;2023-03-04T12:26:54;7.50;99.90
14006;DHT22;7078;51.542;7.314;2023-03-04T12:38:58;7.40;99.90
14006;DHT22;7078;51.542;7.314;2023-03-04T12:41:45;7.30;99.90
14006;DHT22;7078;51.542;7.314;2023-03-04T12:44:14;7.20;99.90
14006;DHT22;7078;51.542;7.314;2023-03-04T12:52:23;7.00;99.90
14006;DHT22;7078;51.542;7.314;2023-03-04T12:54:53;7.00;99.90
14006;DHT22;7078;51.542;7.314;2023-03-04T12:57:23;7.00;99.90
14006;DHT22;7078;51.542;7.314;2023-03-04T13:03:05;6.90;99.90
14006;DHT22;7078;51.542;7.314;2023-03-04T13:06:00;7.00;99.90
14006;DHT22;7078;51.542;7.314;2023-03-04T13:14:32;7.30;99.90
14006;DHT22;7078;51.542;7.314;2023-03-04T13:17:17;7.30;99.90
14006;DHT22;7078;51.542;7.314;2023-03-04T13:19:50;7.30;99.90
14006;DHT22;7078;51.542;7.314;2023-03-04T13:22:31;7.30;99.90
14006;DHT22;7078;51.542;7.314;2023-03-04T13:25:00;7.30;99.90
14006;DHT22;7078;51.542;7.314;2023-03-04T13:27:49;7.30;99.90
14006;DHT22;7078;51.542;7.314;2023-03-04T13:33:43;7.20;99.90
14006;DHT22;7078;51.542;7.314;2023-03-04T13:41:45;7.10;99.90
14006;DHT22;7078;51.542;7.314;2023-03-04T13:47:15;7.20;99.90
14006;DHT22;7078;51.542;7.314;2023-03-04T13:49:41;7.30;99.90
14006;DHT22;7078;51.542;7.314;2023-03-04T13:52:38;7.40;99.90
14006;DHT22;7078;51.542;7.314;2023-03-04T13:55:34;7.60;99.90
14006;DHT22;7078;51.542;7.314;2023-03-04T13:58:01;7.90;99.90
14006;DHT22;7078;51.542;7.314;2023-03-04T14:00:28;8.00;99.90
14006;DHT22;7078;51.542;7.314;2023-03-04T14:02:54;8.10;99.90
14006;DHT22;7078;51.542;7.314;2023-03-04T14:05:19;8.10;99.90
14006;DHT22;7078;51.542;7.314;2023-03-04T14:07:45;8.10;99.90
14006;DHT22;7078;51.542;7.314;2023-03-04T14:12:41;7.90;99.90
14006;DHT22;7078;51.542;7.314;2023-03-04T14:17:37;7.70;99.90
14006;DHT22;7078;51.542;7.314;2023-03-04T14:20:06;7.70;99.90
14006;DHT22;7078;51.542;7.314;2023-03-04T14:22:45;7.70;99.90
14006;DHT22;7078;51.542;7.314;2023-03-04T14:27:42;7.70;99.90
14006;DHT22;7078;51.542;7.314;2023-03-04T14:30:21;7.80;99.90
14006;DHT22;7078;51.542;7.314;2023-03-04T14:32:47;7.80;99.90
14006;DHT22;7078;51.542;7.314;2023-03-04T14:35:30;7.90;99.90
14006;DHT22;7078;51.542;7.314;2023-03-04T14:38:02;8.00;99.90
14006;DHT22;7078;51.542;7.314;2023-03-04T14:40:32;8.00;99.90
14006;DHT22;7078;51.542;7.314;2023-03-04T14:43:07;8.10;99.90
14006;DHT22;7078;51.542;7.314;2023-03-04T14:45:35;8.10;99.90
14006;DHT22;7078;51.542;7.314;2023-03-04T14:48:04;8.10;99.90
14006;DHT22;7078;51.542;7.314;2023-03-04T14:50:31;8.10;99.90
14006;DHT22;7078;51.542;7.314;2023-03-04T14:53:13;8.00;99.90
14006;DHT22;7078;51.542;7.314;2023-03-04T14:55:39;7.90;99.90
14006;DHT22;7078;51.542;7.314;2023-03-04T14:58:07;7.90;99.90
14006;DHT22;7078;51.542;7.314;2023-03-04T15:00:35;7.80;99.90
14006;DHT22;7078;51.542;7.314;2023-03-04T15:03:06;7.80;99.90
14006;DHT22;7078;51.542;7.314;2023-03-04T15:05:34;7.70;99.90
14006;DHT22;7078;51.542;7.314;2023-03-04T15:08:03;7.70;99.90
14006;DHT22;7078;51.542;7.314;2023-03-04T15:10:34;7.70;99.90
14006;DHT22;7078;51.542;7.314;2023-03-04T15:13:06;7.60;99.90
14006;DHT22;7078;51.542;7.314;2023-03-04T15:15:39;7.60;99.90
14006;DHT22;7078;51.542;7.314;2023-03-04T15:18:16;7.60;99.90
14006;DHT22;7078;51.542;7.314;2023-03-04T15:21:37;7.50;99.90
14006;DHT22;7078;51.542;7.314;2023-03-04T15:23:36;7.50;99.90
14006;DHT22;7078;51.542;7.314;2023-03-04T15:26:03;7.50;99.90
14006;DHT22;7078;51.542;7.314;2023-03-04T15:28:35;7.50;99.90
14006;DHT22;7078;51.542;7.314;2023-03-04T15:31:02;7.50;99.90
14006;DHT22;7078;51.542;7.314;2023-03-04T15:33:28;7.50;99.90
14006;DHT22;7078;51.542;7.314;2023-03-04T15:35:58;7.40;99.90
14006;DHT22;7078;51.542;7.314;2023-03-04T15:38:24;7.40;99.90
14006;DHT22;7078;51.542;7.314;2023-03-04T15:40:51;7.40;99.90
14006;DHT22;7078;51.542;7.314;2023-03-04T15:43:19;7.50;99.90
14006;DHT22;7078;51.542;7.314;2023-03-04T15:45:46;7.50;99.90
14006;DHT22;7078;51.542;7.314;2023-03-04T15:48:14;7.60;99.90
14006;DHT22;7078;51.542;7.314;2023-03-04T15:50:44;7.60;99.90
14006;DHT22;7078;51.542;7.314;2023-03-04T15:53:21;7.60;99.90
14006;DHT22;7078;51.542;7.314;2023-03-04T15:55:50;7.60;99.90
14006;DHT22;7078;51.542;7.314;2023-03-04T15:58:16;7.60;99.90
14006;DHT22;7078;51.542;7.314;2023-03-04T16:00:42;7.50;99.90
14006;DHT22;7078;51.542;7.314;2023-03-04T16:03:14;7.50;99.90
14006;DHT22;7078;51.542;7.314;2023-03-04T16:05:39;7.50;99.90
14006;DHT22;7078;51.542;7.314;2023-03-04T16:08:05;7.50;99.90
14006;DHT22;7078;51.542;7.314;2023-03-04T16:10:31;7.50;99.90
14006;DHT22;7078;51.542;7.314;2023-03-04T16:12:57;7.50;99.90
14006;DHT22;7078;51.542;7.314;2023-03-04T16:15:25;7.50;99.90
14006;DHT22;7078;51.542;7.314;2023-03-04T16:17:51;7.50;99.90
14006;DHT22;7078;51.542;7.314;2023-03-04T16:20:22;7.50;99.90
14006;DHT22;7078;51.542;7.314;2023-03-04T16:22:50;7.50;99.90
14006;DHT22;7078;51.542;7.314;2023-03-04T16:25:18;7.50;99.90
14006;DHT22;7078;51.542;7.314;2023-03-04T16:27:44;7.50;99.90
14006;DHT22;7078;51.542;7.314;2023-03-04T16:30:18;7.50;99.90
14006;DHT22;7078;51.542;7.314;2023-03-04T16:32:44;7.50;99.90
14006;DHT22;7078;51.542;7.314;2023-03-04T16:35:11;7.50;99.90
14006;DHT22;7078;51.542;7.314;2023-03-04T16:37:36;7.40;99.90
14006;DHT22;7078;51.542;7.314;2023-03-04T16:40:02;7.40;99.90
14006;DHT22;7078;51.542;7.314;2023-03-04T16:42:29;7.40;99.90
14006;DHT22;7078;51.542;7.314;2023-03-04T16:44:55;7.40;99.90
14006;DHT22;7078;51.542;7.314;2023-03-04T16:47:21;7.40;99.90
14006;DHT22;7078;51.542;7.314;2023-03-04T16:49:47;7.30;99.90
14006;DHT22;7078;51.542;7.314;2023-03-04T16:52:28;7.30;99.90
14006;DHT22;7078;51.542;7.314;2023-03-04T16:54:55;7.30;99.90
14006;DHT22;7078;51.542;7.314;2023-03-04T16:57:22;7.30;99.90
14006;DHT22;7078;51.542;7.314;2023-03-04T16:59:48;7.30;99.90
14006;DHT22;7078;51.542;7.314;2023-03-04T17:02:19;7.30;99.90
14006;DHT22;7078;51.542;7.314;2023-03-04T17:04:47;7.30;99.90
14006;DHT22;7078;51.542;7.314;2023-03-04T17:07:13;7.30;99.90
14006;DHT22;7078;51.542;7.314;2023-03-04T17:09:39;7.30;99.90
14006;DHT22;7078;51.542;7.314;2023-03-04T17:12:07;7.30;99.90
14006;DHT22;7078;51.542;7.314;2023-03-04T17:14:33;7.20;99.90
14006;DHT22;7078;51.542;7.314;2023-03-04T17:17:00;7.20;99.90
14006;DHT22;7078;51.542;7.314;2023-03-04T17:19:26;7.20;99.90
14006;DHT22;7078;51.542;7.314;2023-03-04T17:21:52;7.20;99.90
14006;DHT22;7078;51.542;7.314;2023-03-04T17:24:17;7.20;99.90
14006;DHT22;7078;51.542;7.314;2023-03-04T17:26:43;7.20;99.90
14006;DHT22;7078;51.542;7.314;2023-03-04T17:29:09;7.10;99.90
14006;DHT22;7078;51.542;7.314;2023-03-04T17:31:35;7.10;99.90
14006;DHT22;7078;51.542;7.314;2023-03-04T17:34:01;7.20;99.90
14006;DHT22;7078;51.542;7.314;2023-03-04T17:36:27;7.20;99.90
14006;DHT22;7078;51.542;7.314;2023-03-04T17:38:52;7.10;99.90
14006;DHT22;7078;51.542;7.314;2023-03-04T17:41:19;7.10;99.90
14006;DHT22;7078;51.542;7.314;2023-03-04T17:43:48;7.00;99.90
14006;DHT22;7078;51.542;7.314;2023-03-04T17:46:15;7.00;99.90